• Join FlightAware (Why Join?)
  • Login
  • US Flag GB Flag 
15:47 EDT


 

Airport Tracker/Info


-or-


 

Live Flight TrackerFlight Track Log ✈ N867DS ✈ 18-Oct-2013 ✈ KVDF - F45

Flight Track Log - Related Links

Times and Time Zones

All times are in EDT time to prevent confusion due to time zone crossing. See the N867DS flight status page for this flight to view local times or setup timezone preferences in your user account.

Time Position Orientation Groundspeed Altitude Reporting Facility
EDT Latitude Longitude Course Direction KTS MPH feet Rate Location/Type
19:04 28.0000 -82.2833 139° Southeast 93 107 2,400  Level Tampa TRACON
19:05 27.9667 -82.2500 139° Southeast 88 101 3,300 720 Climbing Tampa TRACON
19:05 27.9667 -82.2500 139° Southeast 87 100 3,700 660 Climbing Tampa TRACON
19:07 27.9667 -82.2167 90° East 88 101 4,500 540 Climbing Tampa TRACON
19:08 27.9667 -82.1833 90° East 95 109 5,000 240 Climbing Tampa TRACON
19:09 27.9500 -82.1500 120° Southeast 129 148 5,000  Level Tampa TRACON
19:10 27.9333 -82.1167 120° Southeast 124 143 5,000  Level Tampa TRACON
19:12 27.9031 -82.0253 111° Southeast 131 151 5,000  Level Miami Center
19:13 27.8897 -81.9872 112° Southeast 131 151 5,000  Level Miami Center
19:14 27.8700 -81.9581 127° Southeast 131 151 5,000  Level Miami Center
19:15 27.8325 -81.9542 175° South 119 137 5,000  Level Miami Center
19:16 27.7956 -81.9383 159° South 140 161 5,000  Level Miami Center
19:17 27.7717 -81.9092 133° Southeast 127 146 5,000  Level Miami Center
19:18 27.7456 -81.8800 135° Southeast 134 154 5,000  Level Miami Center
19:19 27.7256 -81.8533 130° Southeast 134 154 5,000  Level Miami Center
19:20 27.7014 -81.8242 133° Southeast 134 154 5,000  Level Miami Center
19:21 27.6733 -81.7900 133° Southeast 129 148 5,000  Level Miami Center
19:22 27.6494 -81.7583 130° Southeast 129 148 5,000  Level Miami Center
19:23 27.6256 -81.7294 133° Southeast 129 148 5,000  Level Miami Center
19:24 27.6033 -81.7003 131° Southeast 129 148 5,000  Level Miami Center
19:25 27.5794 -81.6711 133° Southeast 129 148 5,000  Level Miami Center
19:26 27.5553 -81.6419 133° Southeast 129 148 5,000  Level Miami Center
19:27 27.5292 -81.6106 133° Southeast 129 148 5,000  Level Miami Center
19:28 27.5050 -81.5814 133° Southeast 129 148 5,000  Level Miami Center
19:29 27.4792 -81.5478 131° Southeast 129 148 5,000  Level Miami Center
19:30 27.4550 -81.5186 133° Southeast 129 148 5,000  Level Miami Center
19:31 27.4289 -81.4847 131° Southeast 129 148 5,000  Level Miami Center
19:32 27.4047 -81.4558 133° Southeast 129 148 5,000  Level Miami Center
19:33 27.3786 -81.4244 133° Southeast 135 155 5,000  Level Miami Center
19:34 27.3544 -81.3953 133° Southeast 135 155 5,000  Level Miami Center
19:35 27.3286 -81.3592 129° Southeast 135 155 5,000  Level Miami Center
19:36 27.3025 -81.3278 133° Southeast 135 155 5,000  Level Miami Center
19:37 27.2783 -81.2989 133° Southeast 135 155 5,000  Level Miami Center
19:38 27.2583 -81.2700 128° Southeast 129 148 5,000  Level Miami Center
19:39 27.2322 -81.2364 131° Southeast 129 148 5,000  Level Miami Center
19:40 27.2058 -81.2072 135° Southeast 129 148 5,000  Level Miami Center
19:41 27.1797 -81.1783 135° Southeast 129 148 5,000  Level Miami Center
19:42 27.1594 -81.1497 129° Southeast 129 148 5,000  Level Miami Center
19:43 27.1333 -81.1183 133° Southeast 129 148 5,000  Level Miami Center
19:44 27.1050 -81.0847 133° Southeast 129 148 5,000  Level Miami Center
19:45 27.0808 -81.0558 133° Southeast 134 154 5,000  Level Miami Center
19:46 27.0547 -81.0200 129° Southeast 134 154 5,000  Level Miami Center
19:47 27.0264 -80.9886 135° Southeast 134 154 5,000  Level Miami Center
19:48 27.0064 -80.9622 130° Southeast 134 154 5,000  Level Miami Center
19:49 26.9761 -80.9261 133° Southeast 134 154 5,000  Level Miami Center
19:50 26.9497 -80.8972 136° Southeast 134 154 5,000  Level Miami Center
19:51 26.9275 -80.8661 129° Southeast 145 167 5,000  Level Miami Center
19:52 26.8992 -80.8328 134° Southeast 145 167 5,000  Level Miami Center
19:53 26.8731 -80.7992 131° Southeast 145 167 5,000  Level Miami Center
19:54 26.8572 -80.7636 117° Southeast 139 160 5,000 -300 Level Miami Center
19:55 26.8542 -80.7242 95° East 130 150 4,400 -660 Descending Miami Center
19:56 26.8492 -80.6750 96° East 144 166 3,700 -660 Descending Miami Center
19:57 26.8442 -80.6331 98° East 139 160 3,100 -600 Descending Miami Center
19:58 26.8408 -80.5933 95° East 139 160 2,600 900 Descending Miami Center
19:59 26.8397 -80.5583 92° East 127 146 5,000 -60 Climbing Miami Center
20:00 26.8344 -80.5233 100° East 117 135 2,500 -1,260 Descending Miami Center
20:01 26.8289 -80.4881 100° East 111 128 2,500 1,200 Level Miami Center
20:02 26.8256 -80.4531 96° East 111 128 5,000 1,200 Climbing Miami Center
20:03 26.8203 -80.4181 100° East 111 128 5,000  Level Miami Center
20:04 26.8186 -80.3969 95° East 111 128 5,000  Level Miami Center
20:06 26.8262 -80.3472 80° East  Level FlightAware Approximate
20:13 26.8333 -80.2167 90° East  Level FlightAware Approximate
20:14 26.8459 -80.2223 90° East  Level Estimated
20:15 26.8459 -80.2223 90° East  Level Estimated
20:16 26.8459 -80.2223 90° East  Level Estimated
20:17 26.8459 -80.2223 90° East  Level Estimated
20:18 26.8459 -80.2223 90° East  Level Estimated
20:19 26.8459 -80.2223 90° East  Level Estimated
20:20 26.8459 -80.2223 90° East  Level Estimated
20:21 26.8459 -80.2223 90° East  Level Estimated
20:22 26.8459 -80.2223 90° East  Level Estimated
20:23 26.8459 -80.2223 90° East  Level Estimated
20:24 26.8459 -80.2223 90° East  Level Estimated
20:25 26.8459 -80.2223 90° East  Level Estimated
20:26 26.8459 -80.2223 90° East  Level Estimated
20:27 26.8459 -80.2223 90° East  Level Estimated
20:28 26.8459 -80.2223 90° East  Level Estimated
20:29 26.8459 -80.2223 90° East  Level Estimated
20:30 26.8459 -80.2223 90° East  Level Estimated
20:31 26.8459 -80.2223 90° East  Level Estimated
20:32 26.8459 -80.2223 90° East  Level Estimated